Decoded Metar for GCRR (LANZAROTE in SPAIN) (IATA:ACE) | Meteo·Mobile Aviation Weather
aviador You're here:

GCRR Decoded Metar

LANZAROTE in SPAIN
Report Time2019-11-16 01:00:00
UTC Time2019-11-16 01:19:33
Flight Rules vfr VFR
Wind010° at 13 kt
W.Decomp.*RWY 03: 12.6 kt HW 3.4 kt LCW
Visibility9999 m
Phenomena:N/A
Clouds:Few 025 Hf
Expected CloudBase > 2,800 ft AGL from Temp-Dew spread
CeilingNone
Temp18°C (ISA +3)
Dew Point11°C (64% RH)
AAT13.7°C
QNH1017 hPa
Density Alt558 ft
Elevation131 ft
Report Wrong Elevation
Raw Report
GCRR 160100Z 01013KT 350V050 9999 FEW025 18/11 Q1017=

Extra information for GCRR:More info

Metar Taf Metar & Taf Last 4 Metars F.Rules Stats Wind Profile Meteogram Temp Stats Airport Information Weather charts Add Link Nearby VenuesMetar ALERT Operation Metar Decoded Social comments